sensor_id;sensor_type;location;lat;lon;timestamp;P1;durP1;ratioP1;P2;durP2;ratioP2
85011;SDS011;75336;42.142;21.732;2024-03-25T00:01:21;14.93;;;6.22;;
85011;SDS011;75336;42.142;21.732;2024-03-25T00:03:47;13.35;;;7.57;;
85011;SDS011;75336;42.142;21.732;2024-03-25T00:06:13;5.63;;;2.92;;
85011;SDS011;75336;42.142;21.732;2024-03-25T00:08:39;5.03;;;4.15;;
85011;SDS011;75336;42.142;21.732;2024-03-25T00:11:06;10.07;;;5.75;;
85011;SDS011;75336;42.142;21.732;2024-03-25T00:13:32;9.13;;;5.05;;
85011;SDS011;75336;42.142;21.732;2024-03-25T00:15:58;8.73;;;4.75;;
85011;SDS011;75336;42.142;21.732;2024-03-25T00:18:24;7.32;;;4.38;;
85011;SDS011;75336;42.142;21.732;2024-03-25T00:20:50;7.45;;;4.18;;
85011;SDS011;75336;42.142;21.732;2024-03-25T00:23:17;7.30;;;4.53;;
85011;SDS011;75336;42.142;21.732;2024-03-25T00:25:43;6.22;;;3.88;;
85011;SDS011;75336;42.142;21.732;2024-03-25T00:28:09;5.35;;;3.72;;
85011;SDS011;75336;42.142;21.732;2024-03-25T00:30:35;4.35;;;3.15;;
85011;SDS011;75336;42.142;21.732;2024-03-25T00:33:01;5.10;;;3.08;;
85011;SDS011;75336;42.142;21.732;2024-03-25T00:35:27;4.65;;;2.72;;
85011;SDS011;75336;42.142;21.732;2024-03-25T00:37:53;4.57;;;3.20;;
85011;SDS011;75336;42.142;21.732;2024-03-25T00:40:19;7.18;;;4.55;;
85011;SDS011;75336;42.142;21.732;2024-03-25T00:42:46;4.13;;;2.80;;
85011;SDS011;75336;42.142;21.732;2024-03-25T00:45:13;4.50;;;3.22;;
85011;SDS011;75336;42.142;21.732;2024-03-25T00:47:39;4.43;;;3.00;;
85011;SDS011;75336;42.142;21.732;2024-03-25T00:50:05;3.65;;;3.30;;
85011;SDS011;75336;42.142;21.732;2024-03-25T00:52:32;13.10;;;5.80;;
85011;SDS011;75336;42.142;21.732;2024-03-25T00:54:58;3.20;;;2.50;;
85011;SDS011;75336;42.142;21.732;2024-03-25T00:57:24;4.47;;;3.63;;
85011;SDS011;75336;42.142;21.732;2024-03-25T00:59:50;8.98;;;5.88;;
85011;SDS011;75336;42.142;21.732;2024-03-25T01:02:17;2.08;;;1.88;;
85011;SDS011;75336;42.142;21.732;2024-03-25T01:04:43;2.15;;;1.95;;
85011;SDS011;75336;42.142;21.732;2024-03-25T01:07:09;1.88;;;1.75;;
85011;SDS011;75336;42.142;21.732;2024-03-25T01:09:35;7.28;;;4.47;;
85011;SDS011;75336;42.142;21.732;2024-03-25T01:12:01;3.80;;;2.75;;
85011;SDS011;75336;42.142;21.732;2024-03-25T01:14:27;2.45;;;2.25;;
85011;SDS011;75336;42.142;21.732;2024-03-25T01:16:53;3.88;;;3.20;;
85011;SDS011;75336;42.142;21.732;2024-03-25T01:19:19;13.68;;;7.38;;
85011;SDS011;75336;42.142;21.732;2024-03-25T01:21:46;2.40;;;2.15;;
85011;SDS011;75336;42.142;21.732;2024-03-25T01:24:12;1.85;;;1.75;;
85011;SDS011;75336;42.142;21.732;2024-03-25T01:26:39;20.10;;;10.07;;
85011;SDS011;75336;42.142;21.732;2024-03-25T01:29:06;3.25;;;2.42;;
85011;SDS011;75336;42.142;21.732;2024-03-25T01:31:32;7.97;;;5.13;;
85011;SDS011;75336;42.142;21.732;2024-03-25T01:33:59;6.43;;;4.47;;
85011;SDS011;75336;42.142;21.732;2024-03-25T01:36:25;2.75;;;2.35;;
85011;SDS011;75336;42.142;21.732;2024-03-25T01:38:52;2.83;;;2.45;;
85011;SDS011;75336;42.142;21.732;2024-03-25T01:41:20;2.55;;;2.05;;
85011;SDS011;75336;42.142;21.732;2024-03-25T01:43:48;4.00;;;3.45;;
85011;SDS011;75336;42.142;21.732;2024-03-25T01:46:14;6.43;;;4.07;;
85011;SDS011;75336;42.142;21.732;2024-03-25T01:48:41;2.75;;;2.50;;
85011;SDS011;75336;42.142;21.732;2024-03-25T01:51:08;4.75;;;3.85;;
85011;SDS011;75336;42.142;21.732;2024-03-25T01:53:34;2.88;;;2.58;;
85011;SDS011;75336;42.142;21.732;2024-03-25T01:56:00;2.72;;;2.30;;
85011;SDS011;75336;42.142;21.732;2024-03-25T01:58:27;3.72;;;2.75;;
85011;SDS011;75336;42.142;21.732;2024-03-25T02:00:54;5.68;;;3.58;;
85011;SDS011;75336;42.142;21.732;2024-03-25T02:03:21;7.38;;;4.78;;
85011;SDS011;75336;42.142;21.732;2024-03-25T02:05:52;7.32;;;4.20;;
85011;SDS011;75336;42.142;21.732;2024-03-25T02:08:21;5.07;;;3.67;;
85011;SDS011;75336;42.142;21.732;2024-03-25T02:10:48;8.95;;;5.35;;
85011;SDS011;75336;42.142;21.732;2024-03-25T02:13:15;12.30;;;6.20;;
85011;SDS011;75336;42.142;21.732;2024-03-25T02:15:41;9.70;;;5.78;;
85011;SDS011;75336;42.142;21.732;2024-03-25T02:18:07;4.38;;;3.88;;
85011;SDS011;75336;42.142;21.732;2024-03-25T02:20:33;4.75;;;3.83;;
85011;SDS011;75336;42.142;21.732;2024-03-25T02:22:59;4.45;;;3.25;;
85011;SDS011;75336;42.142;21.732;2024-03-25T02:25:25;3.42;;;2.75;;
85011;SDS011;75336;42.142;21.732;2024-03-25T02:27:52;3.10;;;2.80;;
85011;SDS011;75336;42.142;21.732;2024-03-25T02:30:18;3.00;;;2.75;;
85011;SDS011;75336;42.142;21.732;2024-03-25T02:32:44;2.20;;;2.00;;
85011;SDS011;75336;42.142;21.732;2024-03-25T02:35:10;2.55;;;2.35;;
85011;SDS011;75336;42.142;21.732;2024-03-25T02:37:38;2.83;;;2.17;;
85011;SDS011;75336;42.142;21.732;2024-03-25T02:40:05;2.85;;;2.63;;
85011;SDS011;75336;42.142;21.732;2024-03-25T02:42:34;2.30;;;1.70;;
85011;SDS011;75336;42.142;21.732;2024-03-25T02:45:01;2.92;;;2.50;;
85011;SDS011;75336;42.142;21.732;2024-03-25T02:47:27;2.72;;;2.53;;
85011;SDS011;75336;42.142;21.732;2024-03-25T02:49:54;3.28;;;2.70;;
85011;SDS011;75336;42.142;21.732;2024-03-25T02:52:20;3.15;;;2.85;;
85011;SDS011;75336;42.142;21.732;2024-03-25T02:54:46;3.55;;;3.10;;
85011;SDS011;75336;42.142;21.732;2024-03-25T02:57:12;4.47;;;2.85;;
85011;SDS011;75336;42.142;21.732;2024-03-25T02:59:40;3.67;;;2.58;;
85011;SDS011;75336;42.142;21.732;2024-03-25T03:02:06;2.45;;;1.98;;
85011;SDS011;75336;42.142;21.732;2024-03-25T03:04:32;3.05;;;2.72;;
85011;SDS011;75336;42.142;21.732;2024-03-25T03:06:58;2.97;;;2.67;;
85011;SDS011;75336;42.142;21.732;2024-03-25T03:09:24;3.13;;;2.80;;
85011;SDS011;75336;42.142;21.732;2024-03-25T03:11:50;3.47;;;3.17;;
85011;SDS011;75336;42.142;21.732;2024-03-25T03:14:17;2.63;;;2.42;;
85011;SDS011;75336;42.142;21.732;2024-03-25T03:16:43;3.78;;;2.90;;
85011;SDS011;75336;42.142;21.732;2024-03-25T03:19:09;3.17;;;2.88;;
85011;SDS011;75336;42.142;21.732;2024-03-25T03:21:35;3.53;;;3.00;;
85011;SDS011;75336;42.142;21.732;2024-03-25T03:24:02;3.50;;;3.20;;
85011;SDS011;75336;42.142;21.732;2024-03-25T03:26:28;3.13;;;2.85;;
85011;SDS011;75336;42.142;21.732;2024-03-25T03:28:54;3.15;;;2.85;;
85011;SDS011;75336;42.142;21.732;2024-03-25T03:31:20;4.22;;;3.28;;
85011;SDS011;75336;42.142;21.732;2024-03-25T03:33:47;2.80;;;2.60;;
85011;SDS011;75336;42.142;21.732;2024-03-25T03:36:15;3.80;;;3.25;;
85011;SDS011;75336;42.142;21.732;2024-03-25T03:41:07;2.85;;;2.00;;
85011;SDS011;75336;42.142;21.732;2024-03-25T03:43:33;3.58;;;3.15;;
85011;SDS011;75336;42.142;21.732;2024-03-25T03:45:59;3.65;;;3.25;;
85011;SDS011;75336;42.142;21.732;2024-03-25T03:48:27;3.33;;;2.53;;
85011;SDS011;75336;42.142;21.732;2024-03-25T03:50:53;3.15;;;2.70;;
85011;SDS011;75336;42.142;21.732;2024-03-25T03:53:19;4.43;;;3.50;;
85011;SDS011;75336;42.142;21.732;2024-03-25T03:55:54;3.10;;;2.63;;
85011;SDS011;75336;42.142;21.732;2024-03-25T03:58:21;3.63;;;3.20;;
85011;SDS011;75336;42.142;21.732;2024-03-25T04:00:47;3.80;;;3.40;;
85011;SDS011;75336;42.142;21.732;2024-03-25T04:03:13;4.18;;;3.42;;
85011;SDS011;75336;42.142;21.732;2024-03-25T04:05:40;4.20;;;3.78;;
85011;SDS011;75336;42.142;21.732;2024-03-25T04:08:06;5.82;;;3.88;;
85011;SDS011;75336;42.142;21.732;2024-03-25T04:10:33;5.25;;;3.10;;
85011;SDS011;75336;42.142;21.732;2024-03-25T04:12:59;4.20;;;3.67;;
85011;SDS011;75336;42.142;21.732;2024-03-25T04:15:26;3.83;;;2.63;;
85011;SDS011;75336;42.142;21.732;2024-03-25T04:17:52;5.13;;;4.20;;
85011;SDS011;75336;42.142;21.732;2024-03-25T04:20:18;7.55;;;5.78;;
85011;SDS011;75336;42.142;21.732;2024-03-25T04:22:45;7.35;;;4.88;;
85011;SDS011;75336;42.142;21.732;2024-03-25T04:25:11;12.23;;;6.97;;
85011;SDS011;75336;42.142;21.732;2024-03-25T04:27:39;8.32;;;5.55;;
85011;SDS011;75336;42.142;21.732;2024-03-25T04:30:06;7.75;;;5.85;;
85011;SDS011;75336;42.142;21.732;2024-03-25T04:32:33;5.78;;;4.53;;
85011;SDS011;75336;42.142;21.732;2024-03-25T04:35:00;6.45;;;4.72;;
85011;SDS011;75336;42.142;21.732;2024-03-25T04:37:26;7.47;;;4.57;;
85011;SDS011;75336;42.142;21.732;2024-03-25T04:39:55;7.13;;;4.75;;
85011;SDS011;75336;42.142;21.732;2024-03-25T04:42:22;6.07;;;3.92;;
85011;SDS011;75336;42.142;21.732;2024-03-25T04:44:51;7.90;;;5.00;;
85011;SDS011;75336;42.142;21.732;2024-03-25T04:47:18;6.03;;;4.90;;
85011;SDS011;75336;42.142;21.732;2024-03-25T04:49:44;7.50;;;5.20;;
85011;SDS011;75336;42.142;21.732;2024-03-25T04:52:11;4.45;;;4.03;;
85011;SDS011;75336;42.142;21.732;2024-03-25T04:54:42;9.73;;;6.95;;
85011;SDS011;75336;42.142;21.732;2024-03-25T04:57:08;6.35;;;4.82;;
85011;SDS011;75336;42.142;21.732;2024-03-25T04:59:34;6.07;;;4.60;;
85011;SDS011;75336;42.142;21.732;2024-03-25T05:02:01;5.32;;;4.43;;
85011;SDS011;75336;42.142;21.732;2024-03-25T05:04:27;5.68;;;4.50;;
85011;SDS011;75336;42.142;21.732;2024-03-25T05:06:53;5.22;;;3.40;;
85011;SDS011;75336;42.142;21.732;2024-03-25T05:09:20;6.47;;;4.68;;
85011;SDS011;75336;42.142;21.732;2024-03-25T05:11:46;17.88;;;8.43;;
85011;SDS011;75336;42.142;21.732;2024-03-25T05:14:12;4.30;;;3.58;;
85011;SDS011;75336;42.142;21.732;2024-03-25T05:16:38;5.65;;;4.60;;
85011;SDS011;75336;42.142;21.732;2024-03-25T05:19:04;4.63;;;4.13;;
85011;SDS011;75336;42.142;21.732;2024-03-25T05:21:30;5.28;;;4.78;;
85011;SDS011;75336;42.142;21.732;2024-03-25T05:23:57;9.13;;;6.45;;
85011;SDS011;75336;42.142;21.732;2024-03-25T05:26:23;7.38;;;6.03;;
85011;SDS011;75336;42.142;21.732;2024-03-25T05:28:55;7.40;;;5.13;;
85011;SDS011;75336;42.142;21.732;2024-03-25T05:31:22;8.73;;;6.57;;
85011;SDS011;75336;42.142;21.732;2024-03-25T05:33:48;5.90;;;4.93;;
85011;SDS011;75336;42.142;21.732;2024-03-25T05:36:14;7.13;;;6.05;;
85011;SDS011;75336;42.142;21.732;2024-03-25T05:38:40;7.07;;;5.00;;
85011;SDS011;75336;42.142;21.732;2024-03-25T05:41:07;5.43;;;4.57;;
85011;SDS011;75336;42.142;21.732;2024-03-25T05:43:34;8.43;;;5.53;;
85011;SDS011;75336;42.142;21.732;2024-03-25T05:46:00;7.28;;;6.15;;
85011;SDS011;75336;42.142;21.732;2024-03-25T05:48:26;10.93;;;6.78;;
85011;SDS011;75336;42.142;21.732;2024-03-25T05:51:05;10.40;;;7.70;;
85011;SDS011;75336;42.142;21.732;2024-03-25T05:53:35;7.47;;;6.05;;
85011;SDS011;75336;42.142;21.732;2024-03-25T05:58:29;35.08;;;18.38;;
85011;SDS011;75336;42.142;21.732;2024-03-25T06:00:55;21.40;;;13.02;;
85011;SDS011;75336;42.142;21.732;2024-03-25T06:03:21;16.88;;;14.82;;
85011;SDS011;75336;42.142;21.732;2024-03-25T06:05:48;9.10;;;7.30;;
85011;SDS011;75336;42.142;21.732;2024-03-25T06:08:14;9.30;;;7.72;;
85011;SDS011;75336;42.142;21.732;2024-03-25T06:10:49;10.85;;;9.48;;
85011;SDS011;75336;42.142;21.732;2024-03-25T06:13:16;12.43;;;10.57;;
85011;SDS011;75336;42.142;21.732;2024-03-25T06:15:42;22.52;;;19.55;;
85011;SDS011;75336;42.142;21.732;2024-03-25T06:18:08;13.68;;;8.18;;
85011;SDS011;75336;42.142;21.732;2024-03-25T06:20:34;13.48;;;10.45;;
85011;SDS011;75336;42.142;21.732;2024-03-25T06:23:00;6.13;;;4.72;;
85011;SDS011;75336;42.142;21.732;2024-03-25T06:25:26;10.32;;;9.25;;
85011;SDS011;75336;42.142;21.732;2024-03-25T06:27:53;9.68;;;8.68;;
85011;SDS011;75336;42.142;21.732;2024-03-25T06:30:19;10.73;;;9.52;;
85011;SDS011;75336;42.142;21.732;2024-03-25T06:33:04;10.68;;;8.68;;
85011;SDS011;75336;42.142;21.732;2024-03-25T06:35:48;12.68;;;10.73;;
85011;SDS011;75336;42.142;21.732;2024-03-25T06:38:15;22.08;;;14.27;;
85011;SDS011;75336;42.142;21.732;2024-03-25T06:40:41;15.93;;;12.40;;
85011;SDS011;75336;42.142;21.732;2024-03-25T06:43:07;20.83;;;12.20;;
85011;SDS011;75336;42.142;21.732;2024-03-25T06:45:33;17.13;;;11.75;;
85011;SDS011;75336;42.142;21.732;2024-03-25T06:47:59;17.02;;;14.35;;
85011;SDS011;75336;42.142;21.732;2024-03-25T06:50:25;19.33;;;14.82;;
85011;SDS011;75336;42.142;21.732;2024-03-25T06:52:51;19.40;;;15.65;;
85011;SDS011;75336;42.142;21.732;2024-03-25T06:55:17;17.90;;;13.05;;
85011;SDS011;75336;42.142;21.732;2024-03-25T06:57:47;11.32;;;9.60;;
85011;SDS011;75336;42.142;21.732;2024-03-25T07:00:13;7.85;;;6.18;;
85011;SDS011;75336;42.142;21.732;2024-03-25T07:02:40;8.73;;;7.82;;
85011;SDS011;75336;42.142;21.732;2024-03-25T07:05:06;11.35;;;8.18;;
85011;SDS011;75336;42.142;21.732;2024-03-25T07:07:32;10.52;;;8.23;;
85011;SDS011;75336;42.142;21.732;2024-03-25T07:10:02;8.00;;;6.40;;
85011;SDS011;75336;42.142;21.732;2024-03-25T07:12:28;9.60;;;8.50;;
85011;SDS011;75336;42.142;21.732;2024-03-25T07:14:54;21.75;;;17.50;;
85011;SDS011;75336;42.142;21.732;2024-03-25T07:17:20;28.20;;;20.35;;
85011;SDS011;75336;42.142;21.732;2024-03-25T07:19:50;20.02;;;17.85;;
85011;SDS011;75336;42.142;21.732;2024-03-25T07:22:17;10.07;;;9.02;;
85011;SDS011;75336;42.142;21.732;2024-03-25T07:24:43;10.77;;;8.48;;
85011;SDS011;75336;42.142;21.732;2024-03-25T07:27:09;11.00;;;6.97;;
85011;SDS011;75336;42.142;21.732;2024-03-25T07:29:36;7.80;;;6.00;;
85011;SDS011;75336;42.142;21.732;2024-03-25T07:32:02;12.23;;;8.43;;
85011;SDS011;75336;42.142;21.732;2024-03-25T07:34:29;9.52;;;7.68;;
85011;SDS011;75336;42.142;21.732;2024-03-25T07:36:55;7.95;;;7.15;;
85011;SDS011;75336;42.142;21.732;2024-03-25T07:39:21;7.05;;;6.32;;
85011;SDS011;75336;42.142;21.732;2024-03-25T07:44:15;9.60;;;7.45;;
85011;SDS011;75336;42.142;21.732;2024-03-25T07:46:42;9.23;;;8.18;;
85011;SDS011;75336;42.142;21.732;2024-03-25T07:49:09;7.95;;;7.15;;
85011;SDS011;75336;42.142;21.732;2024-03-25T07:51:36;8.93;;;5.93;;
85011;SDS011;75336;42.142;21.732;2024-03-25T07:54:05;7.20;;;6.50;;
85011;SDS011;75336;42.142;21.732;2024-03-25T07:56:31;8.20;;;6.55;;
85011;SDS011;75336;42.142;21.732;2024-03-25T07:59:02;9.98;;;7.50;;
85011;SDS011;75336;42.142;21.732;2024-03-25T08:03:55;9.63;;;6.40;;
85011;SDS011;75336;42.142;21.732;2024-03-25T08:06:22;11.27;;;8.00;;
85011;SDS011;75336;42.142;21.732;2024-03-25T08:08:49;10.10;;;8.05;;
85011;SDS011;75336;42.142;21.732;2024-03-25T08:11:16;8.23;;;5.95;;
85011;SDS011;75336;42.142;21.732;2024-03-25T08:13:43;10.57;;;7.43;;
85011;SDS011;75336;42.142;21.732;2024-03-25T08:16:10;9.02;;;7.65;;
85011;SDS011;75336;42.142;21.732;2024-03-25T08:18:36;9.73;;;7.13;;
85011;SDS011;75336;42.142;21.732;2024-03-25T08:21:02;9.20;;;6.38;;
85011;SDS011;75336;42.142;21.732;2024-03-25T08:23:28;13.18;;;11.85;;
85011;SDS011;75336;42.142;21.732;2024-03-25T08:25:55;16.63;;;9.10;;
85011;SDS011;75336;42.142;21.732;2024-03-25T08:28:21;8.45;;;7.18;;
85011;SDS011;75336;42.142;21.732;2024-03-25T08:30:49;11.23;;;9.70;;
85011;SDS011;75336;42.142;21.732;2024-03-25T08:33:17;11.43;;;8.77;;
85011;SDS011;75336;42.142;21.732;2024-03-25T08:35:43;10.60;;;8.18;;
85011;SDS011;75336;42.142;21.732;2024-03-25T08:38:09;15.55;;;13.57;;
85011;SDS011;75336;42.142;21.732;2024-03-25T08:40:36;17.92;;;14.05;;
85011;SDS011;75336;42.142;21.732;2024-03-25T08:43:02;15.35;;;9.38;;
85011;SDS011;75336;42.142;21.732;2024-03-25T08:45:28;9.80;;;8.32;;
85011;SDS011;75336;42.142;21.732;2024-03-25T08:47:55;14.95;;;13.00;;
85011;SDS011;75336;42.142;21.732;2024-03-25T08:50:21;9.80;;;8.73;;
85011;SDS011;75336;42.142;21.732;2024-03-25T08:52:47;13.73;;;12.27;;
85011;SDS011;75336;42.142;21.732;2024-03-25T08:55:14;7.38;;;6.63;;
85011;SDS011;75336;42.142;21.732;2024-03-25T08:57:40;11.48;;;8.60;;
85011;SDS011;75336;42.142;21.732;2024-03-25T09:00:07;13.68;;;9.68;;
85011;SDS011;75336;42.142;21.732;2024-03-25T09:02:35;8.88;;;7.45;;
85011;SDS011;75336;42.142;21.732;2024-03-25T09:05:02;10.88;;;9.00;;
85011;SDS011;75336;42.142;21.732;2024-03-25T09:07:32;16.30;;;12.13;;
85011;SDS011;75336;42.142;21.732;2024-03-25T09:09:58;9.43;;;7.68;;
85011;SDS011;75336;42.142;21.732;2024-03-25T09:12:43;12.68;;;11.02;;
85011;SDS011;75336;42.142;21.732;2024-03-25T09:15:09;17.80;;;12.73;;
85011;SDS011;75336;42.142;21.732;2024-03-25T09:17:36;11.98;;;8.88;;
85011;SDS011;75336;42.142;21.732;2024-03-25T09:20:02;11.57;;;9.35;;
85011;SDS011;75336;42.142;21.732;2024-03-25T09:22:30;14.52;;;9.68;;
85011;SDS011;75336;42.142;21.732;2024-03-25T09:24:58;11.50;;;8.98;;
85011;SDS011;75336;42.142;21.732;2024-03-25T09:29:51;12.98;;;9.65;;
85011;SDS011;75336;42.142;21.732;2024-03-25T09:32:18;12.25;;;10.65;;
85011;SDS011;75336;42.142;21.732;2024-03-25T09:34:45;39.88;;;27.95;;
85011;SDS011;75336;42.142;21.732;2024-03-25T09:37:15;26.10;;;16.48;;
85011;SDS011;75336;42.142;21.732;2024-03-25T09:39:43;21.60;;;14.75;;
85011;SDS011;75336;42.142;21.732;2024-03-25T09:42:12;18.05;;;12.75;;
85011;SDS011;75336;42.142;21.732;2024-03-25T09:44:40;11.35;;;8.95;;
85011;SDS011;75336;42.142;21.732;2024-03-25T09:47:07;8.75;;;6.75;;
85011;SDS011;75336;42.142;21.732;2024-03-25T09:49:35;18.88;;;13.25;;
85011;SDS011;75336;42.142;21.732;2024-03-25T09:52:01;12.60;;;8.13;;
85011;SDS011;75336;42.142;21.732;2024-03-25T09:54:28;12.10;;;7.50;;
85011;SDS011;75336;42.142;21.732;2024-03-25T09:56:54;7.53;;;5.95;;
85011;SDS011;75336;42.142;21.732;2024-03-25T09:59:21;20.08;;;13.02;;
85011;SDS011;75336;42.142;21.732;2024-03-25T10:01:47;14.80;;;10.30;;
85011;SDS011;75336;42.142;21.732;2024-03-25T10:04:13;11.93;;;8.93;;
85011;SDS011;75336;42.142;21.732;2024-03-25T10:06:40;13.43;;;8.65;;
85011;SDS011;75336;42.142;21.732;2024-03-25T10:09:06;10.15;;;7.97;;
85011;SDS011;75336;42.142;21.732;2024-03-25T10:11:34;12.95;;;9.18;;
85011;SDS011;75336;42.142;21.732;2024-03-25T10:14:01;21.65;;;16.65;;
85011;SDS011;75336;42.142;21.732;2024-03-25T10:16:28;30.13;;;20.45;;
85011;SDS011;75336;42.142;21.732;2024-03-25T10:18:55;14.90;;;12.15;;
85011;SDS011;75336;42.142;21.732;2024-03-25T10:21:21;14.40;;;10.50;;
85011;SDS011;75336;42.142;21.732;2024-03-25T10:23:51;27.00;;;22.55;;
85011;SDS011;75336;42.142;21.732;2024-03-25T10:26:25;13.57;;;8.98;;
85011;SDS011;75336;42.142;21.732;2024-03-25T10:29:01;9.52;;;7.35;;
85011;SDS011;75336;42.142;21.732;2024-03-25T10:31:28;9.30;;;8.32;;
85011;SDS011;75336;42.142;21.732;2024-03-25T10:33:55;14.27;;;9.93;;
85011;SDS011;75336;42.142;21.732;2024-03-25T10:36:21;16.45;;;9.65;;
85011;SDS011;75336;42.142;21.732;2024-03-25T10:38:53;23.30;;;15.57;;
85011;SDS011;75336;42.142;21.732;2024-03-25T10:41:20;8.95;;;6.95;;
85011;SDS011;75336;42.142;21.732;2024-03-25T10:43:48;8.15;;;6.78;;
85011;SDS011;75336;42.142;21.732;2024-03-25T10:46:23;11.25;;;7.80;;
85011;SDS011;75336;42.142;21.732;2024-03-25T10:51:53;13.30;;;7.63;;
85011;SDS011;75336;42.142;21.732;2024-03-25T10:54:20;6.72;;;5.72;;
85011;SDS011;75336;42.142;21.732;2024-03-25T10:56:49;12.60;;;8.90;;
85011;SDS011;75336;42.142;21.732;2024-03-25T10:59:18;10.43;;;8.02;;
85011;SDS011;75336;42.142;21.732;2024-03-25T11:01:46;10.93;;;7.63;;
85011;SDS011;75336;42.142;21.732;2024-03-25T11:04:12;14.02;;;8.15;;
85011;SDS011;75336;42.142;21.732;2024-03-25T11:06:38;12.65;;;7.82;;
85011;SDS011;75336;42.142;21.732;2024-03-25T11:09:05;7.50;;;5.57;;
85011;SDS011;75336;42.142;21.732;2024-03-25T11:11:35;12.00;;;8.05;;
85011;SDS011;75336;42.142;21.732;2024-03-25T11:14:04;17.30;;;11.98;;
85011;SDS011;75336;42.142;21.732;2024-03-25T11:16:31;14.30;;;11.27;;
85011;SDS011;75336;42.142;21.732;2024-03-25T11:19:01;21.92;;;15.15;;
85011;SDS011;75336;42.142;21.732;2024-03-25T11:21:29;15.55;;;10.73;;
85011;SDS011;75336;42.142;21.732;2024-03-25T11:23:55;14.40;;;11.30;;
85011;SDS011;75336;42.142;21.732;2024-03-25T11:26:32;9.48;;;8.48;;
85011;SDS011;75336;42.142;21.732;2024-03-25T11:29:01;9.98;;;7.88;;
85011;SDS011;75336;42.142;21.732;2024-03-25T11:31:27;13.23;;;8.70;;
85011;SDS011;75336;42.142;21.732;2024-03-25T11:33:53;36.75;;;20.85;;
85011;SDS011;75336;42.142;21.732;2024-03-25T11:36:21;23.65;;;15.20;;
85011;SDS011;75336;42.142;21.732;2024-03-25T11:39:03;16.10;;;11.10;;
85011;SDS011;75336;42.142;21.732;2024-03-25T11:41:34;25.13;;;15.77;;
85011;SDS011;75336;42.142;21.732;2024-03-25T11:44:01;21.77;;;12.75;;
85011;SDS011;75336;42.142;21.732;2024-03-25T11:46:29;15.20;;;8.60;;
85011;SDS011;75336;42.142;21.732;2024-03-25T11:48:56;5.32;;;4.25;;
85011;SDS011;75336;42.142;21.732;2024-03-25T11:51:22;7.90;;;6.47;;
85011;SDS011;75336;42.142;21.732;2024-03-25T11:53:49;9.27;;;7.15;;
85011;SDS011;75336;42.142;21.732;2024-03-25T11:56:15;15.15;;;10.35;;
85011;SDS011;75336;42.142;21.732;2024-03-25T11:58:41;7.15;;;5.43;;
85011;SDS011;75336;42.142;21.732;2024-03-25T12:01:07;5.97;;;5.38;;
85011;SDS011;75336;42.142;21.732;2024-03-25T12:03:35;6.18;;;5.55;;
85011;SDS011;75336;42.142;21.732;2024-03-25T12:06:01;10.07;;;6.18;;
85011;SDS011;75336;42.142;21.732;2024-03-25T12:08:28;6.80;;;4.95;;
85011;SDS011;75336;42.142;21.732;2024-03-25T12:10:55;7.07;;;5.68;;
85011;SDS011;75336;42.142;21.732;2024-03-25T12:13:40;4.80;;;3.72;;
85011;SDS011;75336;42.142;21.732;2024-03-25T12:16:08;21.27;;;13.50;;
85011;SDS011;75336;42.142;21.732;2024-03-25T12:18:35;9.07;;;5.80;;
85011;SDS011;75336;42.142;21.732;2024-03-25T12:21:01;14.75;;;9.82;;
85011;SDS011;75336;42.142;21.732;2024-03-25T12:23:31;7.45;;;5.57;;
85011;SDS011;75336;42.142;21.732;2024-03-25T12:26:01;10.23;;;7.05;;
85011;SDS011;75336;42.142;21.732;2024-03-25T12:28:28;10.10;;;7.32;;
85011;SDS011;75336;42.142;21.732;2024-03-25T12:30:55;8.35;;;5.90;;
85011;SDS011;75336;42.142;21.732;2024-03-25T12:33:22;8.68;;;7.43;;
85011;SDS011;75336;42.142;21.732;2024-03-25T12:35:48;6.35;;;4.90;;
85011;SDS011;75336;42.142;21.732;2024-03-25T12:38:22;8.20;;;6.63;;
85011;SDS011;75336;42.142;21.732;2024-03-25T12:40:48;8.35;;;6.30;;
85011;SDS011;75336;42.142;21.732;2024-03-25T12:43:15;8.43;;;5.90;;
85011;SDS011;75336;42.142;21.732;2024-03-25T12:45:41;9.75;;;6.78;;
85011;SDS011;75336;42.142;21.732;2024-03-25T12:48:10;8.77;;;5.95;;
85011;SDS011;75336;42.142;21.732;2024-03-25T12:50:37;13.35;;;8.93;;
85011;SDS011;75336;42.142;21.732;2024-03-25T12:53:04;8.63;;;5.32;;
85011;SDS011;75336;42.142;21.732;2024-03-25T12:55:30;9.65;;;6.38;;
85011;SDS011;75336;42.142;21.732;2024-03-25T12:57:57;9.00;;;5.53;;
85011;SDS011;75336;42.142;21.732;2024-03-25T13:00:23;6.85;;;4.75;;
85011;SDS011;75336;42.142;21.732;2024-03-25T13:02:49;6.25;;;4.85;;
85011;SDS011;75336;42.142;21.732;2024-03-25T13:05:15;5.47;;;4.47;;
85011;SDS011;75336;42.142;21.732;2024-03-25T13:07:42;21.80;;;11.43;;
85011;SDS011;75336;42.142;21.732;2024-03-25T13:10:08;7.65;;;5.85;;
85011;SDS011;75336;42.142;21.732;2024-03-25T13:12:34;3.83;;;3.20;;
85011;SDS011;75336;42.142;21.732;2024-03-25T13:15:00;9.98;;;8.68;;
85011;SDS011;75336;42.142;21.732;2024-03-25T13:17:26;8.88;;;7.35;;
85011;SDS011;75336;42.142;21.732;2024-03-25T13:19:53;8.00;;;4.50;;
85011;SDS011;75336;42.142;21.732;2024-03-25T13:22:19;9.02;;;5.82;;
85011;SDS011;75336;42.142;21.732;2024-03-25T13:24:45;7.57;;;5.00;;
85011;SDS011;75336;42.142;21.732;2024-03-25T13:27:11;9.80;;;6.72;;
85011;SDS011;75336;42.142;21.732;2024-03-25T13:29:37;7.80;;;6.72;;
85011;SDS011;75336;42.142;21.732;2024-03-25T13:32:03;7.80;;;6.25;;
85011;SDS011;75336;42.142;21.732;2024-03-25T13:34:30;7.50;;;4.90;;
85011;SDS011;75336;42.142;21.732;2024-03-25T13:36:56;8.88;;;5.35;;
85011;SDS011;75336;42.142;21.732;2024-03-25T13:39:22;10.68;;;7.57;;
85011;SDS011;75336;42.142;21.732;2024-03-25T13:41:48;10.20;;;6.60;;
85011;SDS011;75336;42.142;21.732;2024-03-25T13:44:14;8.98;;;5.47;;
85011;SDS011;75336;42.142;21.732;2024-03-25T13:46:41;22.70;;;16.92;;
85011;SDS011;75336;42.142;21.732;2024-03-25T13:49:07;22.17;;;10.93;;
85011;SDS011;75336;42.142;21.732;2024-03-25T13:51:34;67.93;;;28.42;;
85011;SDS011;75336;42.142;21.732;2024-03-25T13:54:00;39.55;;;20.52;;
85011;SDS011;75336;42.142;21.732;2024-03-25T13:56:27;22.52;;;12.63;;
85011;SDS011;75336;42.142;21.732;2024-03-25T13:58:53;11.93;;;9.48;;
85011;SDS011;75336;42.142;21.732;2024-03-25T14:01:19;11.30;;;8.38;;
85011;SDS011;75336;42.142;21.732;2024-03-25T14:03:46;7.82;;;6.60;;
85011;SDS011;75336;42.142;21.732;2024-03-25T14:06:12;11.60;;;7.32;;
85011;SDS011;75336;42.142;21.732;2024-03-25T14:08:38;8.10;;;6.03;;
85011;SDS011;75336;42.142;21.732;2024-03-25T14:11:04;11.10;;;6.32;;
85011;SDS011;75336;42.142;21.732;2024-03-25T14:13:30;7.70;;;5.93;;
85011;SDS011;75336;42.142;21.732;2024-03-25T14:15:57;8.82;;;5.57;;
85011;SDS011;75336;42.142;21.732;2024-03-25T14:18:23;13.00;;;9.98;;
85011;SDS011;75336;42.142;21.732;2024-03-25T14:20:51;14.90;;;10.13;;
85011;SDS011;75336;42.142;21.732;2024-03-25T14:23:17;21.35;;;12.82;;
85011;SDS011;75336;42.142;21.732;2024-03-25T14:25:43;18.00;;;13.30;;
85011;SDS011;75336;42.142;21.732;2024-03-25T14:28:10;18.05;;;12.68;;
85011;SDS011;75336;42.142;21.732;2024-03-25T14:33:27;12.90;;;10.18;;
85011;SDS011;75336;42.142;21.732;2024-03-25T14:35:53;15.05;;;11.48;;
85011;SDS011;75336;42.142;21.732;2024-03-25T14:38:19;18.25;;;14.25;;
85011;SDS011;75336;42.142;21.732;2024-03-25T14:40:46;23.80;;;15.75;;
85011;SDS011;75336;42.142;21.732;2024-03-25T14:43:12;12.00;;;8.98;;